Hit Tracker is now ESPN Home Run Tracker! Hit Tracker founder Greg Rybarczyk is now collaborating with the ESPN Stats & Information Group to continue tracking all MLB home runs, and helping baseball fans know "How Far It Really Went!™" Please credit any information on this site to ESPN Stats & Information Group. For more information and analysis on home runs, please contact founder Greg Rybarczyk. E-Mail ESPN Home Run Tracker
Main Page | Ballparks | Park Overlays | Glossary | Highlight Homers | Feedback | Bio | 3 Types of HR's | AAA Home Run Derby Last Updated: July 27, 2015, 11:25 pm PST
Welcome to the ESPN Home Run Tracker! Check out the ESPN MLB Scoreboard throughout the 2015 season! Contact us at grybar@hittrackeronline.com.
Season:
Ballpark detail for Fenway Park
Ballpark # of Home Runs HR per game Avg.
True
Distance
Avg.
Speed
Off
Bat
Avg.
Std.
Dist.
Fenway Park 91 2.17 393.8 103.1 391.9

Scatter Plot of Home Runs Fenway Park
 Overlay Ballpark:
Without range rings   With range rings

2015 Season Home Runs for Fenway Park
Click headers to sort
Date ^ Video Path Hitter Hitter
Team
Pitcher Pitcher
Team
INN Ballpark Type/
Luck
True
Dist.
Speed
Off
Bat
Elev.
Angle
Horiz.
Angle
Apex Impact Due To: Std.
Dist.
#
Parks
Wind Temp. Alt.
04/13/15 Video View Betts, Mookie BOS Zimmermann, Jordan WSH 2 Fenway Park PL 397 107.0 25.0 114.4 68 1 0 0 395 30
04/13/15 Video View Zimmerman, Ryan WSH Porcello, Rick BOS 5 Fenway Park JE 425 103.6 26.9 86.4 94 2 0 0 422 26
04/13/15 Video View Ortiz, David BOS Roark, Tanner WSH 6 Fenway Park JE 431 105.8 25.1 94.6 84 1 0 0 429 27
04/13/15 Video View Espinosa, Danny WSH Porcello, Rick BOS 8 Fenway Park JE 388 105.5 23.2 72.2 62 2 0 0 386 21
04/14/15 Video View Pedroia, Dustin BOS Strasburg, Stephen WSH 4 Fenway Park JE 352 97.6 28.9 121.4 72 1 0 0 352 16
04/15/15 Video View Desmond, Ian WSH Miley, Wade BOS 3 Fenway Park ND 380 101.8 29.5 119.0 84 2 0 0 379 30
04/15/15 Video View Ramirez, Hanley BOS Gonzalez, Gio WSH 5 Fenway Park PL 385 106.3 26.7 126.6 70 2 -1 0 383 30
04/15/15 Video View Moore, Tyler WSH Ross, Robbie BOS 7 Fenway Park JE 397 98.5 31.0 101.7 99 11 -1 0 387 4
04/17/15 Video View Joseph, Caleb BAL Kelly, Joe BOS 5 Fenway Park JE 317 88.7 36.1 57.0 87 5 -1 0 312 0
04/17/15 Video View Hanigan, Ryan BOS Gausman, Kevin BAL 5 Fenway Park PL 351 97.1 37.9 118.6 119 8 -2 0 344 13
04/18/15 Video View Davis, Chris BAL Ross, Robbie BOS 9 Fenway Park JE 344 94.6 35.1 112.6 107 -2 -3 0 349 6
04/19/15 Video View Jones, Adam BAL Porcello, Rick BOS 1 Fenway Park ND 388 102.8 28.8 112.9 87 0 -2 0 391 30
04/19/15 Video View Ramirez, Hanley BOS Gonzalez, Miguel BAL 1 Fenway Park ND 405 106.2 25.7 109.4 77 2 -2 0 405 30
04/19/15 Video View Flaherty, Ryan BAL Porcello, Rick BOS 2 Fenway Park JE 401 101.2 24.9 94.3 79 1 -1 0 401 3
04/27/15 Video View Travis, Devon TOR Kelly, Joe BOS 3 Fenway Park ND 398 101.2 29.6 107.3 93 7 -2 0 393 30
04/27/15 Video View Sandoval, Pablo BOS Sanchez, Aaron TOR 4 Fenway Park JE 391 117.5 18.2 71.1 45 0 -1 0 392 22
04/28/15 Video View Bautista, Jose TOR Breslow, Craig BOS 8 Fenway Park ND 418 110.4 29.5 122.2 95 1 -2 0 419 30
04/28/15 Video View Ramirez, Hanley BOS Loup, Aaron TOR 8 Fenway Park PL 346 98.8 26.7 53.9 61 2 -1 0 345 18
04/28/15 Video View Donaldson, Josh TOR Tazawa, Junichi BOS 9 Fenway Park PL/L 415 101.8 28.1 95.5 96 4 -1 0 412 20
04/29/15 Video View Ramirez, Hanley BOS Dickey, R.A. TOR 3 Fenway Park PL 406 106.0 24.8 104.0 80 -2 -1 0 410 30
05/01/15 Video View Craig, Allen BOS Sabathia, CC NYY 4 Fenway Park JE 326 95.6 38.6 115.5 125 -4 -6 0 337 6
05/01/15 Video View Rodriguez, Alex NYY Tazawa, Junichi BOS 8 Fenway Park JE 392 111.3 23.3 121.1 61 0 -2 0 395 30
05/02/15 Video View Pedroia, Dustin BOS Eovaldi, Nathan NYY 4 Fenway Park ND 377 100.3 31.7 116.0 95 3 -3 0 377 30
05/02/15 Video View Young, Chris NYY Ogando, Alexi BOS 9 Fenway Park JE 356 94.3 32.3 107.5 95 1 -3 0 357 2
05/03/15 Video View Teixeira, Mark NYY Kelly, Joe BOS 1 Fenway Park ND 408 103.0 27.4 102.8 87 3 -1 0 406 30
05/03/15 Video View Gardner, Brett NYY Breslow, Craig BOS 6 Fenway Park JE 389 101.1 26.2 75.5 77 2 -1 0 388 20
05/03/15 Video View Napoli, Mike BOS Rogers, Esmil NYY 6 Fenway Park JE/L 365 96.4 36.8 102.4 126 9 -4 0 360 1
05/04/15 Video View Butler, Joey TB Buchholz, Clay BOS 2 Fenway Park JE 385 102.6 26.4 113.9 68 5 0 0 380 27
05/05/15 Video View Betts, Mookie BOS Smyly, Drew TB 6 Fenway Park ND 398 103.3 27.5 109.0 84 1 -1 0 397 30
05/05/15 Video View Betts, Mookie BOS Frieri, Ernesto TB 8 Fenway Park PL 378 98.5 34.2 101.9 122 0 -2 0 380 11
05/06/15 Video View Longoria, Evan TB Masterson, Justin BOS 4 Fenway Park JE 400 106.5 22.8 103.6 64 0 0 0 400 28
05/06/15 Video View Betts, Mookie BOS Jepsen, Kevin TB 8 Fenway Park PL 412 106.8 24.9 105.3 77 0 -1 0 412 30
05/06/15 Video View Longoria, Evan TB Ogando, Alexi BOS 9 Fenway Park ND 416 106.3 31.2 113.3 105 9 -2 0 410 30
05/19/15 Video View Napoli, Mike BOS Gallardo, Yovani TEX 4 Fenway Park ND 402 109.4 26.1 122.7 72 2 -1 0 401 30
05/19/15 Video View Ortiz, David BOS Gallardo, Yovani TEX 5 Fenway Park JE 399 104.3 22.9 80.6 67 0 0 0 399 15
05/19/15 Video View Martin, Leonys TEX Uehara, Koji BOS 9 Fenway Park JE 394 107.5 23.2 69.9 63 1 0 0 394 29
05/20/15 Video View Chirinos, Robinson TEX Kelly, Joe BOS 3 Fenway Park JE 412 101.1 29.1 101.1 94 12 -2 0 401 20
05/20/15 Video View Bogaerts, Xander BOS Klein, Phil TEX 5 Fenway Park ND 411 105.3 32.2 115.8 109 13 -3 0 401 30
05/21/15 Video View Moreland, Mitch TEX Buchholz, Clay BOS 4 Fenway Park JE 388 97.5 30.6 101.2 94 7 -2 0 382 5
05/22/15 Video View Napoli, Mike BOS Richards, Garrett LAA 2 Fenway Park ND 428 104.1 29.0 100.0 101 10 -1 0 419 30
05/22/15 Video View Pujols, Albert LAA Porcello, Rick BOS 4 Fenway Park JE 419 107.1 23.7 102.3 71 6 0 0 414 28
05/22/15 Video View Iannetta, Chris LAA Barnes, Matt BOS 5 Fenway Park JE 385 97.6 34.7 102.2 118 13 -2 0 374 1
05/22/15 Video View Aybar, Erick LAA Barnes, Matt BOS 5 Fenway Park PL 364 95.2 35.6 58.5 95 22 -1 0 343 20
05/23/15 Video View Napoli, Mike BOS Wilson, C.J. LAA 2 Fenway Park JE 386 108.2 25.2 126.9 65 3 -1 0 384 30
05/23/15 Video View Napoli, Mike BOS Wilson, C.J. LAA 6 Fenway Park ND 446 113.1 24.9 106.6 86 2 -2 0 445 30
05/24/15 Video View Napoli, Mike BOS Santiago, Hector LAA 2 Fenway Park ND 450 105.9 29.9 86.6 110 14 1 0 435 29
06/03/15 Video View Dozier, Brian MIN Rodriguez, Eduardo BOS 3 Fenway Park JE 372 105.2 25.5 124.4 64 -1 -1 0 373 30
06/03/15 Video View Napoli, Mike BOS Tonkin, Michael MIN 7 Fenway Park PL 366 97.7 33.9 105.2 116 -5 -2 0 373 18
06/03/15 Video View Escobar, Eduardo MIN Ogando, Alexi BOS 9 Fenway Park PL 362 96.2 30.9 105.2 97 -6 -1 0 370 15
06/04/15 Video View Pedroia, Dustin BOS Milone, Tommy MIN 4 Fenway Park ND 388 100.2 31.2 101.5 111 -6 -2 0 396 30
06/04/15 Video View Swihart, Blake BOS Milone, Tommy MIN 3 Fenway Park ND 406 107.1 32.5 109.3 127 -7 -3 0 416 30
06/04/15 Video View Hunter, Torii MIN Wright, Steven BOS 5 Fenway Park ND 371 98.2 31.3 107.8 100 -4 -2 0 377 25
06/05/15 Video View Lawrie, Brett OAK Miley, Wade BOS 7 Fenway Park JE 400 105.1 23.7 102.9 71 0 0 0 401 29
06/06/15 Video View Ramirez, Hanley BOS Chavez, Jesse OAK 1 Fenway Park PL 430 109.8 19.7 89.5 68 4 0 0 426 26
06/06/15 Video View Canha, Mark OAK Ogando, Alexi BOS 7 Fenway Park JE/L 371 105.0 24.2 119.4 60 0 0 0 371 24
06/07/15 Video View Castillo, Rusney BOS Graveman, Kendall OAK 8 Fenway Park JE 380 97.7 30.5 100.4 101 -4 -1 0 384 11
06/12/15 Video View Sandoval, Pablo BOS Hutchison, Drew TOR 1 Fenway Park JE 394 107.0 21.2 78.3 58 0 1 0 393 16
06/12/15 Video View Betts, Mookie BOS Hutchison, Drew TOR 1 Fenway Park PL 365 95.9 32.3 109.1 97 0 1 0 363 10
06/12/15 Video View Pedroia, Dustin BOS Hutchison, Drew TOR 3 Fenway Park ND 383 98.5 37.3 108.2 125 22 3 0 359 5
06/12/15 Video View Smoak, Justin TOR Layne, Tommy BOS 7 Fenway Park JE 414 104.5 25.5 102.7 73 5 1 0 408 30
06/13/15 Video View Ortiz, David BOS Dickey, R.A. TOR 6 Fenway Park ND 444 113.4 26.1 71.5 95 -6 2 0 448 30
06/13/15 Video View Martin, Russell TOR Barnes, Matt BOS 11 Fenway Park ND 439 108.6 24.7 97.9 92 -2 1 0 439 30
06/14/15 Video View Goins, Ryan TOR Rodriguez, Eduardo BOS 4 Fenway Park JE 385 101.7 27.9 72.5 91 -7 0 0 392 29
06/14/15 Video View Valencia, Danny TOR Wright, Steven BOS 5 Fenway Park ND 398 103.9 28.5 108.8 93 -4 0 0 403 30
06/14/15 Video View Ortiz, David BOS Estrada, Marco TOR 5 Fenway Park PL 389 100.2 31.4 73.8 104 0 0 0 389 29
06/15/15 Video View Bogaerts, Xander BOS Eveland, Dana ATL 7 Fenway Park PL 418 102.8 27.2 90.6 98 0 -1 0 419 25
06/16/15 Video View Holt, Brock BOS Teheran, Julio ATL 7 Fenway Park JE 388 100.1 26.5 102.1 79 0 -1 0 388 13
06/23/15 Video View Lough, David BAL Kelly, Joe BOS 2 Fenway Park JE 392 107.5 22.9 69.6 60 1 0 0 390 27
06/24/15 Video View Ortiz, David BOS Norris, Bud BAL 6 Fenway Park JE 432 110.6 20.2 87.6 64 -2 0 0 433 26
06/25/15 Video View Wieters, Matt BAL Rodriguez, Eduardo BOS 4 Fenway Park PL 393 99.8 28.5 75.7 84 4 1 0 388 25
06/25/15 Video View De Aza, Alejandro BOS Gonzalez, Miguel BAL 4 Fenway Park ND 372 101.5 28.3 54.1 69 7 1 0 365 29
07/03/15 Video View Ramirez, Hanley BOS Straily, Dan HOU 2 Fenway Park ND 417 102.6 29.8 99.9 104 6 1 0 411 28
07/03/15 Video View Correa, Carlos HOU Breslow, Craig BOS 8 Fenway Park PL 403 103.0 32.4 97.6 129 -8 0 0 411 30
07/05/15 Video View Correa, Carlos HOU Ogando, Alexi BOS 7 Fenway Park JE 417 109.2 22.4 102.4 66 1 0 0 416 30
07/05/15 Video View Gattis, Evan HOU Ogando, Alexi BOS 7 Fenway Park JE/L 387 108.1 22.5 112.5 58 1 0 0 385 24
07/05/15 Video View Ramirez, Hanley BOS Sipp, Tony HOU 7 Fenway Park JE 357 97.6 30.3 125.1 76 4 1 0 352 18
07/08/15 Video View Ortiz, David BOS Koehler, Tom MIA 3 Fenway Park JE 347 93.0 35.6 112.5 102 4 3 0 341 1
07/08/15 Video View Morse, Michael MIA Barnes, Matt BOS 8 Fenway Park PL 425 105.1 26.7 81.6 93 0 1 0 424 30
07/10/15 Video View Rodriguez, Alex NYY Buchholz, Clay BOS 1 Fenway Park ND 376 100.9 37.9 110.7 138 11 3 0 362 16
07/10/15 Video View Betts, Mookie BOS Pineda, Michael NYY 5 Fenway Park JE 385 103.3 25.7 113.0 69 3 1 0 381 23
07/11/15 Video View Rodriguez, Alex NYY Rodriguez, Eduardo BOS 1 Fenway Park JE 375 104.2 25.7 122.7 65 2 1 0 372 30
07/11/15 Video View Ramirez, Hanley BOS Nova, Ivan NYY 4 Fenway Park JE 390 105.0 22.1 78.2 60 -1 0 -1 391 15
07/11/15 Video View Ellsbury, Jacoby NYY Rodriguez, Eduardo BOS 6 Fenway Park JE 399 103.3 23.2 82.3 67 -1 0 0 399 15
07/12/15 Video View McCann, Brian NYY Miley, Wade BOS 2 Fenway Park PL 379 98.8 28.6 109.0 81 2 2 0 375 16
07/12/15 Video View Refsnyder, Robert NYY Ogando, Alexi BOS 9 Fenway Park PL 378 97.9 31.4 115.4 86 10 2 0 366 19
07/25/15 Video View Cespedes, Yoenis DET Wright, Steven BOS 1 Fenway Park ND 423 107.0 25.0 99.9 88 -3 0 0 426 30
07/25/15 Video View Castellanos, Nick DET Ramirez, Noe BOS 6 Fenway Park ND 399 104.1 31.8 112.9 108 0 0 0 399 30
07/26/15 Video View Castellanos, Nick DET Rodriguez, Eduardo BOS 5 Fenway Park PL 445 108.4 24.4 85.4 86 3 0 0 442 29
07/26/15 Video View Ortiz, David BOS Greene, Shane DET 5 Fenway Park ND 435 109.3 26.5 73.5 90 3 0 0 431 30
07/26/15 Video View Ortiz, David BOS Feliz, Neftali DET 7 Fenway Park PL 411 103.1 26.1 99.0 82 2 0 0 409 28
07/27/15 Video View Ortiz, David BOS Danks, John CHW 1 Fenway Park PL 417 100.9 29.9 91.6 103 7 1 0 409 16


About HitTracker | Contact Us
© 2006-2015 HitTrackerOnline